createdAt,value
2016-05-29T00:00:47.623Z,0
2016-05-29T00:01:56.219Z,0
2016-05-29T00:02:47.487Z,0
2016-05-29T00:04:06.974Z,0
2016-05-29T00:04:49.243Z,0
2016-05-29T00:05:47.809Z,0
2016-05-29T00:07:00.326Z,0
2016-05-29T00:08:00.485Z,0
2016-05-29T00:09:13.488Z,0
2016-05-29T00:10:06.881Z,0
2016-05-29T00:11:07.056Z,0
2016-05-29T00:11:47.652Z,0
2016-05-29T00:12:47.906Z,0
2016-05-29T00:13:47.892Z,0
2016-05-29T00:14:48.003Z,0
2016-05-29T00:15:47.772Z,0
2016-05-29T00:16:49.384Z,0
2016-05-29T00:18:00.700Z,0
2016-05-29T00:19:00.734Z,0
2016-05-29T00:20:08.174Z,0
2016-05-29T00:20:48.692Z,0
2016-05-29T00:22:19.336Z,0
2016-05-29T00:23:07.010Z,0
2016-05-29T00:23:48.138Z,0
2016-05-29T00:25:57.643Z,0
2016-05-29T00:26:57.786Z,0
2016-05-29T00:27:59.226Z,0
2016-05-29T00:29:00.854Z,0
2016-05-29T00:30:00.888Z,0
2016-05-29T00:30:58.969Z,0
2016-05-29T00:31:59.143Z,0
2016-05-29T00:32:57.912Z,0
2016-05-29T00:33:57.868Z,0
2016-05-29T00:34:59.293Z,0
2016-05-29T00:35:59.889Z,0
2016-05-29T00:36:58.001Z,0
2016-05-29T00:37:58.003Z,0
2016-05-29T00:38:58.022Z,0
2016-05-29T00:39:58.040Z,0
2016-05-29T00:41:17.293Z,0
2016-05-29T00:42:10.858Z,0
2016-05-29T00:44:00.692Z,0
2016-05-29T00:44:19.645Z,0
2016-05-29T00:45:13.428Z,0
2016-05-29T00:46:26.166Z,0
2016-05-29T00:47:13.434Z,0
2016-05-29T00:48:13.467Z,0
2016-05-29T00:49:13.314Z,0
2016-05-29T00:50:13.911Z,0
2016-05-29T00:51:14.788Z,0
2016-05-29T00:52:13.558Z,0
2016-05-29T00:53:16.513Z,0
2016-05-29T00:54:13.266Z,0
2016-05-29T00:55:13.440Z,0
2016-05-29T00:56:15.068Z,0
2016-05-29T00:57:26.226Z,0
2016-05-29T00:58:13.652Z,0
2016-05-29T00:59:32.826Z,0
2016-05-29T01:00:26.624Z,0
2016-05-29T01:01:13.722Z,0
2016-05-29T01:02:13.865Z,0
2016-05-29T01:03:16.790Z,0
2016-05-29T01:04:13.917Z,0
2016-05-29T01:05:27.045Z,0
2016-05-29T01:06:15.688Z,0
2016-05-29T01:07:13.676Z,0
2016-05-29T01:08:15.271Z,0
2016-05-29T01:09:13.884Z,0
2016-05-29T01:10:16.917Z,0
2016-05-29T01:11:13.920Z,0
2016-05-29T01:12:26.673Z,0
2016-05-29T01:13:26.753Z,0
2016-05-29T01:14:14.022Z,0
2016-05-29T01:15:13.884Z,0
2016-05-29T01:16:15.559Z,0
2016-05-29T01:17:14.030Z,0
2016-05-29T01:18:15.408Z,0
2016-05-29T01:19:14.114Z,0
2016-05-29T01:20:14.085Z,0
2016-05-29T01:21:14.822Z,0
2016-05-29T01:22:14.153Z,0
2016-05-29T01:23:14.061Z,0
2016-05-29T01:24:14.033Z,0
2016-05-29T01:25:14.271Z,0
2016-05-29T01:26:15.633Z,0
2016-05-29T01:27:14.088Z,0
2016-05-29T01:28:14.357Z,0
2016-05-29T01:29:14.297Z,0
2016-05-29T01:30:14.347Z,0
2016-05-29T01:31:14.333Z,0
2016-05-29T01:32:14.368Z,0
2016-05-29T01:33:15.886Z,0
2016-05-29T01:34:14.404Z,0
2016-05-29T01:35:26.891Z,0
2016-05-29T01:36:15.863Z,0
2016-05-29T01:37:14.584Z,0
2016-05-29T01:38:14.493Z,0
2016-05-29T01:39:14.465Z,0
2016-05-29T01:40:14.357Z,0
2016-05-29T01:41:14.657Z,0
2016-05-29T01:42:23.551Z,0
2016-05-29T01:43:14.709Z,0
2016-05-29T01:44:33.728Z,0
2016-05-29T01:45:17.496Z,0
2016-05-29T01:46:45.781Z,0
2016-05-29T01:47:14.673Z,0
2016-05-29T01:48:14.676Z,0
2016-05-29T01:49:14.553Z,0
2016-05-29T01:50:14.744Z,0
2016-05-29T01:51:27.247Z,0
2016-05-29T01:52:27.405Z,0
2016-05-29T01:53:33.908Z,0
2016-05-29T01:54:34.052Z,0
2016-05-29T01:55:14.679Z,0
2016-05-29T01:56:14.963Z,0
2016-05-29T01:57:17.888Z,0
2016-05-29T01:58:17.921Z,0
2016-05-29T01:59:14.738Z,0
2016-05-29T02:00:14.927Z,0
2016-05-29T02:01:14.946Z,0
2016-05-29T02:02:14.995Z,0
2016-05-29T02:03:15.060Z,0
2016-05-29T02:04:18.032Z,0
2016-05-29T02:05:16.925Z,0
2016-05-29T02:06:27.819Z,0
2016-05-29T02:07:15.133Z,0
2016-05-29T02:08:15.074Z,0
2016-05-29T02:09:15.093Z,0
2016-05-29T02:10:14.845Z,0
2016-05-29T02:11:15.128Z,0
2016-05-29T02:12:15.163Z,0
2016-05-29T02:13:27.759Z,0
2016-05-29T02:14:15.043Z,0
2016-05-29T02:15:15.248Z,0
2016-05-29T02:17:05.739Z,0
2016-05-29T02:17:18.395Z,0
2016-05-29T02:18:18.429Z,0
2016-05-29T02:19:18.416Z,0
2016-05-29T02:20:18.325Z,0
2016-05-29T02:21:37.702Z,0
2016-05-29T02:22:18.486Z,0
2016-05-29T02:23:49.848Z,0
2016-05-29T02:24:37.616Z,0
2016-05-29T02:25:18.682Z,0
2016-05-29T02:26:49.716Z,0
2016-05-29T02:27:31.406Z,0
2016-05-29T02:28:18.627Z,0
2016-05-29T02:29:44.208Z,0
2016-05-29T02:30:18.352Z,0
2016-05-29T02:31:18.557Z,0
2016-05-29T02:32:18.560Z,0
2016-05-29T02:33:31.485Z,0
2016-05-29T02:34:18.738Z,0
2016-05-29T02:35:18.990Z,0
2016-05-29T02:36:19.571Z,0
2016-05-29T02:37:18.823Z,0
2016-05-29T02:38:21.888Z,0
2016-05-29T02:39:18.720Z,0
2016-05-29T02:40:31.643Z,0
2016-05-29T02:41:18.897Z,0
2016-05-29T02:42:18.931Z,0
2016-05-29T02:43:18.652Z,0
2016-05-29T02:44:18.951Z,0
2016-05-29T02:45:18.970Z,0
2016-05-29T02:46:22.020Z,0
2016-05-29T02:47:18.850Z,0
2016-05-29T02:48:24.948Z,0
2016-05-29T02:49:19.106Z,0
2016-05-29T02:50:19.437Z,0
2016-05-29T02:51:19.611Z,0
2016-05-29T02:52:19.129Z,0
2016-05-29T02:53:28.429Z,0
2016-05-29T02:54:19.010Z,0
2016-05-29T02:55:20.606Z,0
2016-05-29T02:56:19.202Z,0
2016-05-29T02:57:22.253Z,5
2016-05-29T02:58:31.849Z,5
2016-05-29T02:59:25.523Z,5
2016-05-29T03:00:20.714Z,5
2016-05-29T03:01:22.325Z,5
2016-05-29T03:02:19.297Z,5
2016-05-29T03:03:19.174Z,5
2016-05-29T03:04:20.771Z,5
2016-05-29T03:05:19.461Z,5
2016-05-29T03:06:38.463Z,10
2016-05-29T03:07:32.013Z,10
2016-05-29T03:08:50.719Z,10
2016-05-29T03:09:19.269Z,10
2016-05-29T03:10:19.474Z,10
2016-05-29T03:11:19.165Z,15
2016-05-29T03:12:19.527Z,15
2016-05-29T03:13:19.217Z,15
2016-05-29T03:14:19.532Z,15
2016-05-29T03:15:19.723Z,20
2016-05-29T03:16:32.320Z,20
2016-05-29T03:17:32.337Z,20
2016-05-29T03:18:19.636Z,20
2016-05-29T03:19:19.702Z,25
2016-05-29T03:20:32.673Z,25
2016-05-29T03:21:19.614Z,25
2016-05-29T03:22:19.538Z,25
2016-05-29T03:23:19.729Z,30
2016-05-29T03:24:21.184Z,30
2016-05-29T03:25:20.155Z,30
2016-05-29T03:26:22.831Z,35
2016-05-29T03:27:32.395Z,35
2016-05-29T03:28:19.977Z,35
2016-05-29T03:29:19.682Z,40
2016-05-29T03:30:19.857Z,40
2016-05-29T03:31:21.281Z,40
2016-05-29T03:32:32.643Z,40
2016-05-29T03:33:38.974Z,45
2016-05-29T03:34:38.993Z,45
2016-05-29T03:35:19.963Z,45
2016-05-29T03:36:20.669Z,50
2016-05-29T03:37:20.110Z,50
2016-05-29T03:38:32.754Z,50
2016-05-29T03:39:20.084Z,55
2016-05-29T03:40:19.899Z,55
2016-05-29T03:41:20.012Z,55
2016-05-29T03:42:19.935Z,60
2016-05-29T03:43:20.001Z,60
2016-05-29T03:44:20.160Z,60
2016-05-29T03:45:20.225Z,65
2016-05-29T03:46:32.759Z,70
2016-05-29T03:47:23.231Z,70
2016-05-29T03:48:20.076Z,75
2016-05-29T03:49:26.501Z,75
2016-05-29T03:50:20.067Z,75
2016-05-29T03:51:20.164Z,80
2016-05-29T03:52:33.134Z,85
2016-05-29T03:53:33.044Z,85
2016-05-29T03:54:20.437Z,90
2016-05-29T03:55:20.220Z,95
2016-05-29T03:56:20.380Z,95
2016-05-29T03:57:20.242Z,95
2016-05-29T03:58:20.432Z,95
2016-05-29T03:59:20.435Z,95
2016-05-29T04:00:20.312Z,100
2016-05-29T04:01:20.331Z,100
2016-05-29T04:02:20.505Z,105
2016-05-29T04:03:20.616Z,110
2016-05-29T04:04:20.402Z,115
2016-05-29T04:05:22.827Z,120
2016-05-29T04:06:20.610Z,125
2016-05-29T04:07:20.440Z,130
2016-05-29T04:08:20.600Z,135
2016-05-29T04:09:20.508Z,140
2016-05-29T04:10:20.542Z,145
2016-05-29T04:11:22.107Z,145
2016-05-29T04:12:33.423Z,150
2016-05-29T04:13:20.738Z,155
2016-05-29T04:15:23.353Z,160
2016-05-29T04:15:55.090Z,160
2016-05-29T04:16:35.887Z,165
2016-05-29T04:17:36.217Z,165
2016-05-29T04:18:37.376Z,170
2016-05-29T04:19:36.160Z,170
2016-05-29T04:20:49.242Z,170
2016-05-29T04:21:36.040Z,170
2016-05-29T04:23:01.703Z,175
2016-05-29T04:23:39.234Z,180
2016-05-29T04:25:38.895Z,190
2016-05-29T04:26:10.632Z,185
2016-05-29T04:26:51.397Z,190
2016-05-29T04:28:22.872Z,185
2016-05-29T04:28:59.296Z,185
2016-05-29T04:29:51.640Z,185
2016-05-29T04:31:10.536Z,175
2016-05-29T04:31:51.536Z,180
2016-05-29T04:33:54.139Z,155
2016-05-29T04:34:25.842Z,155
2016-05-29T04:35:06.828Z,165
2016-05-29T04:36:08.316Z,175
2016-05-29T04:37:06.880Z,160
2016-05-29T04:38:19.632Z,155
2016-05-29T04:39:19.636Z,145
2016-05-29T04:40:06.951Z,145
2016-05-29T04:41:38.235Z,135
2016-05-29T04:42:26.409Z,135
2016-05-29T04:44:19.759Z,145
2016-05-29T04:45:07.151Z,135
2016-05-29T04:46:07.046Z,155
2016-05-29T04:47:10.110Z,155
2016-05-29T04:48:09.832Z,155
2016-05-29T04:49:06.960Z,155
2016-05-29T04:50:07.353Z,155
2016-05-29T04:51:10.559Z,150
2016-05-29T04:52:08.514Z,145
2016-05-29T04:53:19.783Z,155
2016-05-29T04:54:26.442Z,160
2016-05-29T04:55:07.070Z,155
2016-05-29T04:57:05.825Z,165
2016-05-29T04:57:18.731Z,170
2016-05-29T04:58:49.765Z,165
2016-05-29T04:59:31.502Z,160
2016-05-29T05:00:21.380Z,160
2016-05-29T05:02:53.855Z,150
2016-05-29T05:03:53.857Z,150
2016-05-29T05:04:31.203Z,150
2016-05-29T05:06:32.177Z,155
2016-05-29T05:06:51.083Z,155
2016-05-29T05:07:44.852Z,155
2016-05-29T05:08:44.870Z,165
2016-05-29T05:10:35.501Z,170
2016-05-29T05:11:07.191Z,170
2016-05-29T05:11:48.160Z,175
2016-05-29T05:12:48.209Z,180
2016-05-29T05:14:00.949Z,195
2016-05-29T05:14:49.355Z,200
2016-05-29T05:16:13.971Z,220
2016-05-29T05:16:51.314Z,225
2016-05-29T05:18:52.148Z,255
2016-05-29T05:19:24.009Z,255
2016-05-29T05:20:04.683Z,260
2016-05-29T05:21:25.468Z,265
2016-05-29T05:22:07.798Z,250
2016-05-29T05:23:07.739Z,250
2016-05-29T05:24:17.319Z,240
2016-05-29T05:25:04.932Z,240
2016-05-29T05:27:07.967Z,230
2016-05-29T05:28:20.862Z,225
2016-05-29T05:29:08.067Z,220
2016-05-29T05:30:20.773Z,220
2016-05-29T05:31:08.213Z,230
2016-05-29T05:33:12.234Z,230
2016-05-29T05:33:37.641Z,230
2016-05-29T05:34:24.611Z,225
2016-05-29T05:35:37.724Z,225
2016-05-29T05:36:25.039Z,235
2016-05-29T05:37:24.980Z,245
2016-05-29T05:38:37.654Z,250
2016-05-29T05:39:24.875Z,260
2016-05-29T05:42:00.290Z,280
2016-05-29T05:44:05.951Z,270
2016-05-29T05:44:49.888Z,275
2016-05-29T05:45:18.673Z,275
2016-05-29T05:46:18.660Z,275
2016-05-29T05:47:37.896Z,275
2016-05-29T05:48:19.993Z,265
2016-05-29T05:50:34.061Z,225
2016-05-29T05:51:35.487Z,225
2016-05-29T05:52:34.067Z,210
2016-05-29T05:53:34.131Z,220
2016-05-29T05:54:34.026Z,200
2016-05-29T05:55:53.325Z,200
2016-05-29T05:56:46.889Z,195
2016-05-29T05:58:05.442Z,220
2016-05-29T05:59:24.523Z,230
2016-05-29T05:59:37.179Z,230
2016-05-29T06:00:36.916Z,245
2016-05-29T06:01:37.247Z,245
2016-05-29T06:02:56.315Z,235
2016-05-29T06:03:37.112Z,225
2016-05-29T06:05:08.445Z,240
2016-05-29T06:05:45.039Z,240
2016-05-29T06:06:37.651Z,240
2016-05-29T06:07:37.373Z,245
2016-05-29T06:08:37.250Z,260
2016-05-29T06:09:40.299Z,260
2016-05-29T06:10:37.443Z,275
2016-05-29T06:11:37.446Z,285
2016-05-29T06:12:37.214Z,275
2016-05-29T06:13:37.201Z,265
2016-05-29T06:14:37.532Z,250
2016-05-29T06:15:37.597Z,235
2016-05-29T06:16:50.303Z,215
2016-05-29T06:17:37.524Z,200
2016-05-29T06:18:37.465Z,205
2016-05-29T06:19:37.608Z,200
2016-05-29T06:20:38.798Z,205
2016-05-29T06:21:37.707Z,205
2016-05-29T06:22:40.584Z,200
2016-05-29T06:23:40.650Z,210
2016-05-29T06:24:43.871Z,215
2016-05-29T06:25:50.514Z,230
2016-05-29T06:26:51.298Z,240
2016-05-29T06:27:38.051Z,245
2016-05-29T06:28:37.945Z,255
2016-05-29T06:29:37.759Z,255
2016-05-29T06:30:37.575Z,255
2016-05-29T06:31:37.937Z,250
2016-05-29T06:32:37.940Z,250
2016-05-29T06:33:37.974Z,245
2016-05-29T06:34:37.866Z,245
2016-05-29T06:35:38.058Z,245
2016-05-29T06:36:38.013Z,245
2016-05-29T06:37:38.031Z,240
2016-05-29T06:38:38.049Z,240
2016-05-29T06:39:50.850Z,230
2016-05-29T06:40:38.102Z,225
2016-05-29T06:41:38.260Z,220
2016-05-29T06:42:38.014Z,220
2016-05-29T06:43:38.266Z,215
2016-05-29T06:44:38.237Z,210
2016-05-29T06:45:38.052Z,205
2016-05-29T06:46:44.385Z,195
2016-05-29T06:47:38.090Z,200
2016-05-29T06:48:38.279Z,200
2016-05-29T06:49:38.282Z,200
2016-05-29T06:50:39.394Z,205
2016-05-29T06:51:38.085Z,205
2016-05-29T06:52:38.446Z,205
2016-05-29T06:53:51.137Z,210
2016-05-29T06:54:38.327Z,200
2016-05-29T06:55:38.455Z,215
2016-05-29T06:56:38.301Z,220
2016-05-29T06:57:38.397Z,215
2016-05-29T06:58:38.401Z,200
2016-05-29T06:59:38.512Z,210
2016-05-29T07:00:38.406Z,210
2016-05-29T07:01:38.720Z,205
2016-05-29T07:02:38.598Z,205
2016-05-29T07:03:38.695Z,225
2016-05-29T07:04:38.666Z,230
2016-05-29T07:05:39.153Z,225
2016-05-29T07:06:38.297Z,220
2016-05-29T07:07:41.769Z,225
2016-05-29T07:08:51.474Z,225
2016-05-29T07:09:38.742Z,225
2016-05-29T07:10:38.761Z,205
2016-05-29T07:11:38.779Z,195
2016-05-29T07:12:38.782Z,200
2016-05-29T07:13:38.800Z,195
2016-05-29T07:14:38.880Z,195
2016-05-29T07:15:38.883Z,195
2016-05-29T07:16:38.996Z,195
2016-05-29T07:17:38.795Z,190
2016-05-29T07:18:58.207Z,190
2016-05-29T07:19:39.004Z,185
2016-05-29T07:20:39.694Z,180
2016-05-29T07:21:40.165Z,180
2016-05-29T07:22:58.092Z,170
2016-05-29T07:23:42.076Z,170
2016-05-29T07:24:39.111Z,165
2016-05-29T07:26:29.601Z,155
2016-05-29T07:26:42.288Z,155
2016-05-29T07:27:42.197Z,145
2016-05-29T07:28:42.168Z,165
2016-05-29T07:29:42.203Z,180
2016-05-29T07:30:42.205Z,175
2016-05-29T07:31:42.255Z,175
2016-05-29T07:32:42.242Z,200
2016-05-29T07:34:01.654Z,200
2016-05-29T07:34:42.451Z,185
2016-05-29T07:36:07.753Z,190
2016-05-29T07:36:42.784Z,195
2016-05-29T07:38:45.069Z,190
2016-05-29T07:39:23.448Z,195
2016-05-29T07:39:57.779Z,190
2016-05-29T07:40:57.625Z,185
2016-05-29T07:41:57.674Z,165
2016-05-29T07:42:57.881Z,155
2016-05-29T07:43:58.008Z,155
2016-05-29T07:44:57.807Z,160
2016-05-29T07:46:17.108Z,160
2016-05-29T07:46:57.985Z,170
2016-05-29T07:49:00.537Z,160
2016-05-29T07:49:38.943Z,165
2016-05-29T07:50:12.915Z,170
2016-05-29T07:51:44.730Z,175
2016-05-29T07:52:25.826Z,185
2016-05-29T07:53:13.517Z,190
2016-05-29T07:54:25.926Z,175
2016-05-29T07:55:13.429Z,180
2016-05-29T07:57:15.950Z,165
2016-05-29T07:57:54.184Z,160
2016-05-29T07:58:28.562Z,160
2016-05-29T07:59:28.705Z,165
2016-05-29T08:00:28.536Z,175
2016-05-29T08:01:28.757Z,175
2016-05-29T08:02:28.729Z,170
2016-05-29T08:03:28.841Z,175
2016-05-29T08:04:28.749Z,170
2016-05-29T08:05:29.549Z,180
2016-05-29T08:06:29.458Z,180
2016-05-29T08:07:28.867Z,185
2016-05-29T08:08:28.697Z,190
2016-05-29T08:09:41.607Z,205
2016-05-29T08:10:28.625Z,195
2016-05-29T08:11:28.925Z,210
2016-05-29T08:12:29.083Z,225
2016-05-29T08:13:28.977Z,210
2016-05-29T08:14:29.010Z,210
2016-05-29T08:15:28.842Z,205
2016-05-29T08:16:29.047Z,200
2016-05-29T08:17:32.096Z,205
2016-05-29T08:18:28.928Z,205
2016-05-29T08:19:29.087Z,215
2016-05-29T08:20:29.152Z,210
2016-05-29T08:21:29.232Z,200
2016-05-29T08:22:41.783Z,200
2016-05-29T08:23:29.191Z,210
2016-05-29T08:24:29.210Z,195
2016-05-29T08:25:29.243Z,190
2016-05-29T08:26:29.059Z,205
2016-05-29T08:27:29.381Z,225
2016-05-29T08:28:48.406Z,215
2016-05-29T08:29:42.118Z,205
2016-05-29T08:30:48.611Z,210
2016-05-29T08:31:29.465Z,215
2016-05-29T08:33:32.080Z,210
2016-05-29T08:33:44.877Z,210
2016-05-29T08:34:44.794Z,235
2016-05-29T08:35:44.805Z,245
2016-05-29T08:36:45.410Z,235
2016-05-29T08:38:02.202Z,225
2016-05-29T08:38:44.733Z,240
2016-05-29T08:39:44.927Z,235
2016-05-29T08:40:44.948Z,250
2016-05-29T08:41:44.766Z,255
2016-05-29T08:42:46.645Z,245
2016-05-29T08:43:44.851Z,235
2016-05-29T08:44:45.042Z,225
2016-05-29T08:45:46.514Z,245
2016-05-29T08:46:57.845Z,235
2016-05-29T08:47:44.958Z,215
2016-05-29T08:48:57.743Z,215
2016-05-29T08:49:48.074Z,210
2016-05-29T08:50:45.515Z,220
2016-05-29T08:51:45.424Z,215
2016-05-29T08:52:48.349Z,210
2016-05-29T08:53:45.305Z,245
2016-05-29T08:55:04.515Z,220
2016-05-29T08:55:45.124Z,230
2016-05-29T08:56:45.142Z,250
2016-05-29T08:57:48.317Z,250
2016-05-29T08:58:58.039Z,240
2016-05-29T08:59:45.494Z,255
2016-05-29T09:01:11.015Z,265
2016-05-29T09:01:45.468Z,270
2016-05-29T09:02:49.253Z,300
2016-05-29T09:03:45.489Z,300
2016-05-29T09:04:45.476Z,285
2016-05-29T09:05:45.385Z,305
2016-05-29T09:06:58.294Z,295
2016-05-29T09:07:51.078Z,270
2016-05-29T09:09:42.521Z,260
2016-05-29T09:09:55.068Z,270
2016-05-29T09:10:55.211Z,285
2016-05-29T09:11:58.010Z,265
2016-05-29T09:12:56.952Z,265
2016-05-29T09:13:54.985Z,285
2016-05-29T09:14:58.519Z,275
2016-05-29T09:16:08.087Z,295
2016-05-29T09:17:08.105Z,290
2016-05-29T09:18:12.357Z,300
2016-05-29T09:19:21.079Z,315
2016-05-29T09:19:55.298Z,300
2016-05-29T09:21:28.554Z,335
2016-05-29T09:21:55.491Z,340
2016-05-29T09:23:00.527Z,340
2016-05-29T09:23:55.543Z,355
2016-05-29T09:24:55.624Z,350
2016-05-29T09:25:55.689Z,345
2016-05-29T09:26:55.614Z,325
2016-05-29T09:28:01.384Z,360
2016-05-29T09:28:57.134Z,340
2016-05-29T09:30:08.484Z,365
2016-05-29T09:31:08.533Z,350
2016-05-29T09:31:55.689Z,350
2016-05-29T09:33:11.570Z,335
2016-05-29T09:33:55.648Z,300
2016-05-29T09:34:55.807Z,275
2016-05-29T09:35:57.638Z,235
2016-05-29T09:37:08.581Z,245
2016-05-29T09:38:02.661Z,220
2016-05-29T09:38:55.864Z,210
2016-05-29T09:39:55.867Z,205
2016-05-29T09:40:55.994Z,245
2016-05-29T09:41:55.747Z,220
2016-05-29T09:43:02.660Z,210
2016-05-29T09:43:55.941Z,220
2016-05-29T09:44:55.802Z,215
2016-05-29T09:45:56.024Z,220
2016-05-29T09:46:57.418Z,210
2016-05-29T09:48:16.173Z,215
2016-05-29T09:48:55.938Z,215
2016-05-29T09:49:56.097Z,195
2016-05-29T09:50:56.116Z,210
2016-05-29T09:51:56.274Z,215
2016-05-29T09:53:12.264Z,225
2016-05-29T09:53:56.326Z,230
2016-05-29T09:55:15.426Z,235
2016-05-29T09:56:08.929Z,250
2016-05-29T09:56:56.101Z,225
2016-05-29T09:57:58.868Z,220
2016-05-29T09:58:56.325Z,210
2016-05-29T09:59:56.171Z,200
2016-05-29T10:00:56.330Z,210
2016-05-29T10:01:56.443Z,210
2016-05-29T10:02:59.179Z,195
2016-05-29T10:03:59.182Z,225
2016-05-29T10:04:56.466Z,220
2016-05-29T10:05:59.983Z,220
2016-05-29T10:06:56.315Z,220
2016-05-29T10:07:59.208Z,235
2016-05-29T10:08:56.477Z,220
2016-05-29T10:10:02.811Z,230
2016-05-29T10:10:56.561Z,220
2016-05-29T10:12:09.269Z,215
2016-05-29T10:12:59.425Z,220
2016-05-29T10:13:56.646Z,210
2016-05-29T10:14:56.493Z,205
2016-05-29T10:16:09.482Z,225
2016-05-29T10:17:09.626Z,190
2016-05-29T10:18:01.331Z,200
2016-05-29T10:18:56.737Z,185
2016-05-29T10:19:56.788Z,195
2016-05-29T10:20:58.337Z,210
2016-05-29T10:21:56.527Z,180
2016-05-29T10:23:09.549Z,180
2016-05-29T10:23:56.705Z,200
2016-05-29T10:24:56.676Z,225
2016-05-29T10:25:56.897Z,225
2016-05-29T10:26:56.963Z,230
2016-05-29T10:28:01.406Z,235
2016-05-29T10:28:56.812Z,240
2016-05-29T10:30:16.192Z,245
2016-05-29T10:30:56.911Z,240
2016-05-29T10:32:22.509Z,255
2016-05-29T10:33:00.478Z,265
2016-05-29T10:35:09.846Z,255
2016-05-29T10:35:56.815Z,290
2016-05-29T10:36:57.036Z,290
2016-05-29T10:38:00.273Z,280
2016-05-29T10:38:57.166Z,270
2016-05-29T10:39:57.185Z,285
2016-05-29T10:40:57.203Z,250
2016-05-29T10:42:10.005Z,270
2016-05-29T10:43:02.008Z,310
2016-05-29T10:43:57.149Z,290
2016-05-29T10:44:57.292Z,275
2016-05-29T10:45:57.201Z,275
2016-05-29T10:46:57.188Z,330
2016-05-29T10:47:59.378Z,280
2016-05-29T10:48:57.397Z,230
2016-05-29T10:49:57.274Z,235
2016-05-29T10:50:57.465Z,225
2016-05-29T10:51:57.655Z,225
2016-05-29T10:52:58.173Z,225
2016-05-29T10:53:57.488Z,250
2016-05-29T10:54:57.585Z,255
2016-05-29T10:55:57.556Z,265
2016-05-29T10:56:57.559Z,245
2016-05-29T10:58:01.499Z,240
2016-05-29T10:58:57.657Z,235
2016-05-29T10:59:57.520Z,225
2016-05-29T11:00:57.648Z,220
2016-05-29T11:01:57.588Z,245
2016-05-29T11:03:00.934Z,265
2016-05-29T11:03:57.656Z,280
2016-05-29T11:04:57.721Z,225
2016-05-29T11:05:58.005Z,220
2016-05-29T11:06:58.008Z,245
2016-05-29T11:07:59.776Z,245
2016-05-29T11:08:58.013Z,195
2016-05-29T11:09:57.984Z,230
2016-05-29T11:10:58.237Z,225
2016-05-29T11:11:58.146Z,230
2016-05-29T11:13:01.664Z,205
2016-05-29T11:13:58.855Z,215
2016-05-29T11:14:58.419Z,205
2016-05-29T11:15:58.032Z,220
2016-05-29T11:16:58.393Z,235
2016-05-29T11:17:57.927Z,220
2016-05-29T11:18:58.196Z,250
2016-05-29T11:19:58.089Z,260
2016-05-29T11:20:59.091Z,265
2016-05-29T11:21:57.657Z,290
2016-05-29T11:23:00.441Z,300
2016-05-29T11:23:58.163Z,295
2016-05-29T11:24:58.040Z,305
2016-05-29T11:25:58.324Z,310
2016-05-29T11:26:58.217Z,320
2016-05-29T11:28:08.035Z,335
2016-05-29T11:28:58.270Z,340
2016-05-29T11:29:58.319Z,325
2016-05-29T11:30:58.323Z,320
2016-05-29T11:31:58.246Z,345
2016-05-29T11:33:01.156Z,320
2016-05-29T11:33:58.376Z,335
2016-05-29T11:34:58.270Z,400
2016-05-29T11:35:58.820Z,405
2016-05-29T11:36:58.354Z,465
2016-05-29T11:38:01.153Z,495
2016-05-29T11:38:58.578Z,450
2016-05-29T11:39:58.533Z,475
2016-05-29T11:40:58.521Z,420
2016-05-29T11:41:58.570Z,455
2016-05-29T11:43:01.480Z,440
2016-05-29T11:43:58.591Z,355
2016-05-29T11:45:04.894Z,410
2016-05-29T11:45:58.519Z,455
2016-05-29T11:46:58.677Z,485
2016-05-29T11:48:01.743Z,510
2016-05-29T11:48:58.589Z,385
2016-05-29T11:49:58.779Z,330
2016-05-29T11:50:59.297Z,300
2016-05-29T11:51:58.832Z,270
2016-05-29T11:53:00.177Z,330
2016-05-29T11:53:58.712Z,340
2016-05-29T11:54:58.871Z,370
2016-05-29T11:56:11.485Z,335
2016-05-29T11:56:58.907Z,320
2016-05-29T11:58:24.616Z,270
2016-05-29T11:58:58.960Z,255
2016-05-29T11:59:58.993Z,280
2016-05-29T12:00:59.121Z,285
2016-05-29T12:01:58.843Z,275
2016-05-29T12:03:18.082Z,265
2016-05-29T12:03:58.926Z,250
2016-05-29T12:05:24.917Z,250
2016-05-29T12:05:59.760Z,260
2016-05-29T12:06:58.997Z,230
2016-05-29T12:08:00.593Z,270
2016-05-29T12:08:59.221Z,260
2016-05-29T12:09:59.239Z,240
2016-05-29T12:10:59.273Z,245
2016-05-29T12:11:59.276Z,285
2016-05-29T12:13:00.653Z,340
2016-05-29T12:13:59.375Z,330
2016-05-29T12:14:59.347Z,320
2016-05-29T12:15:59.365Z,310
2016-05-29T12:16:59.367Z,285
2016-05-29T12:18:02.839Z,260
2016-05-29T12:19:18.344Z,225
2016-05-29T12:20:05.566Z,210
2016-05-29T12:21:31.569Z,200
2016-05-29T12:22:18.649Z,180
2016-05-29T12:23:32.480Z,160
2016-05-29T12:23:59.699Z,140
2016-05-29T12:24:59.467Z,135
2016-05-29T12:25:59.705Z,140
2016-05-29T12:26:59.894Z,145
2016-05-29T12:28:00.428Z,150
2016-05-29T12:28:59.915Z,150
2016-05-29T12:29:59.356Z,160
2016-05-29T12:30:59.687Z,165
2016-05-29T12:31:59.549Z,155
2016-05-29T12:32:59.801Z,140
2016-05-29T12:34:02.897Z,140
2016-05-29T12:34:59.775Z,130
2016-05-29T12:36:01.107Z,115
2016-05-29T12:37:12.409Z,125
2016-05-29T12:38:02.893Z,130
2016-05-29T12:39:18.914Z,125
2016-05-29T12:39:59.773Z,100
2016-05-29T12:42:02.498Z,95
2016-05-29T12:42:34.391Z,85
2016-05-29T12:43:18.158Z,80
2016-05-29T12:44:15.349Z,85
2016-05-29T12:45:15.274Z,80
2016-05-29T12:46:15.230Z,80
2016-05-29T12:47:34.513Z,75
2016-05-29T12:48:15.391Z,75
2016-05-29T12:49:15.316Z,80
2016-05-29T12:50:15.366Z,80
2016-05-29T12:51:15.493Z,70
2016-05-29T12:52:15.402Z,60
2016-05-29T12:53:15.263Z,70
2016-05-29T12:54:15.424Z,75
2016-05-29T12:55:15.504Z,90
2016-05-29T12:56:15.335Z,115
2016-05-29T12:57:15.774Z,130
2016-05-29T12:58:15.512Z,155
2016-05-29T12:59:15.562Z,190
2016-05-29T13:00:15.580Z,230
2016-05-29T13:01:15.379Z,195
2016-05-29T13:02:15.647Z,200
2016-05-29T13:03:15.525Z,190
2016-05-29T13:04:15.809Z,205
2016-05-29T13:05:15.828Z,215
2016-05-29T13:06:16.706Z,235
2016-05-29T13:07:15.864Z,275
2016-05-29T13:08:15.664Z,250
2016-05-29T13:09:15.854Z,350
2016-05-29T13:10:15.341Z,265
2016-05-29T13:11:15.859Z,325
2016-05-29T13:12:17.236Z,380
2016-05-29T13:13:15.693Z,390
2016-05-29T13:14:15.914Z,475
2016-05-29T13:15:15.901Z,360
2016-05-29T13:16:15.919Z,375
2016-05-29T13:17:15.938Z,375
2016-05-29T13:18:15.972Z,360
2016-05-29T13:19:16.068Z,410
2016-05-29T13:20:15.883Z,350
2016-05-29T13:21:15.917Z,400
2016-05-29T13:22:15.780Z,380
2016-05-29T13:23:15.969Z,375
2016-05-29T13:24:15.785Z,370
2016-05-29T13:25:16.194Z,405
2016-05-29T13:26:16.149Z,410
2016-05-29T13:27:16.168Z,380
2016-05-29T13:28:16.171Z,445
2016-05-29T13:29:16.188Z,510
2016-05-29T13:30:16.285Z,480
2016-05-29T13:31:16.101Z,475
2016-05-29T13:32:16.463Z,450
2016-05-29T13:33:35.590Z,435
2016-05-29T13:34:29.124Z,385
2016-05-29T13:35:47.346Z,485
2016-05-29T13:36:16.957Z,435
2016-05-29T13:37:16.398Z,410
2016-05-29T13:38:19.431Z,360
2016-05-29T13:39:16.451Z,290
2016-05-29T13:40:29.078Z,290
2016-05-29T13:41:16.456Z,290
2016-05-29T13:43:25.664Z,230
2016-05-29T13:44:26.308Z,210
2016-05-29T13:45:38.811Z,210
2016-05-29T13:46:25.750Z,210
2016-05-29T13:47:46.408Z,225
2016-05-29T13:48:26.099Z,205
2016-05-29T13:49:26.071Z,195
2016-05-29T13:50:28.745Z,190
2016-05-29T13:51:29.217Z,170
2016-05-29T13:52:26.157Z,160
2016-05-29T13:53:38.753Z,155
2016-05-29T13:54:25.960Z,150
2016-05-29T13:55:26.212Z,145
2016-05-29T13:56:27.668Z,150
2016-05-29T13:57:27.718Z,150
2016-05-29T13:58:38.782Z,135
2016-05-29T13:59:38.988Z,140
2016-05-29T14:00:26.069Z,130
2016-05-29T14:01:38.946Z,115
2016-05-29T14:02:46.652Z,115
2016-05-29T14:03:38.874Z,135
2016-05-29T14:04:39.174Z,145
2016-05-29T14:05:26.348Z,150
2016-05-29T14:06:26.851Z,155
2016-05-29T14:07:26.384Z,155
2016-05-29T14:08:26.497Z,150
2016-05-29T14:09:45.546Z,135
2016-05-29T14:10:27.878Z,120
2016-05-29T14:12:36.304Z,125
2016-05-29T14:13:36.322Z,125
2016-05-29T14:14:48.810Z,125
2016-05-29T14:15:36.281Z,130
2016-05-29T14:16:35.940Z,135